1851 NOT_NAMED (1851080S15063)


IBTrACS version v04r00. Visit IBTrACS website for data access.
Please direct all questions to the IBTrACS Q and A forum

Storm track - Intensity - Wind Radii - Intensity Data - Source Data - All data

Summary Information

Storm ID 1851080S15063
Start Mar 21 06Z
Landfall Mar 27 06Z
End Mar 28 06Z
ATCF IDs
Track status Best track data.
Spur track This storm is a spur track associated with the main storm: 1851080S15062

Storm track plot

Map of storm track

Intensity plots

No Intensity information for this storm


Radial wind information

No radial wind information for this storm


Position and Intensity Table

BASIN ISO_TIME_________ NATURE LAT LON
degrees north degrees east
SI 1851-03-21 06:00:00 NR -15.10 62.50
SI 09:00:00 NR -15.19 62.33
SI 12:00:00 NR -15.28 62.16
SI 15:00:00 NR -15.38 61.98
SI 18:00:00 NR -15.48 61.80
SI 21:00:00 NR -15.57 61.61
SI 1851-03-22 00:00:00 NR -15.68 61.42
SI 03:00:00 NR -15.79 61.21
SI 06:00:00 NR -15.90 61.00
SI 09:00:00 NR -16.02 60.77
SI 12:00:00 NR -16.14 60.54
SI 15:00:00 NR -16.27 60.29
SI 18:00:00 NR -16.39 60.04
SI 21:00:00 NR -16.50 59.78
SI 1851-03-23 00:00:00 NR -16.61 59.52
SI 03:00:00 NR -16.71 59.26
SI 06:00:00 NR -16.80 59.00
SI 09:00:00 NR -16.87 58.76
SI 12:00:00 NR -16.92 58.52
SI 15:00:00 NR -16.96 58.27
SI 18:00:00 NR -16.99 58.03
SI 21:00:00 NR -17.02 57.78
SI 1851-03-24 00:00:00 NR -17.05 57.53
SI 03:00:00 NR -17.07 57.27
SI 06:00:00 NR -17.10 57.00
SI 09:00:00 NR -17.13 56.72
SI 12:00:00 NR -17.16 56.44
SI 15:00:00 NR -17.19 56.14
SI 18:00:00 NR -17.23 55.84
SI 21:00:00 NR -17.26 55.54
SI 1851-03-25 00:00:00 NR -17.30 55.23
SI 03:00:00 NR -17.35 54.92
SI 06:00:00 NR -17.40 54.60
SI 09:00:00 NR -17.45 54.29
SI 12:00:00 NR -17.52 53.98
SI 15:00:00 NR -17.58 53.66
SI 18:00:00 NR -17.65 53.34
SI 21:00:00 NR -17.73 53.02
SI 1851-03-26 00:00:00 NR -17.82 52.69
SI 03:00:00 NR -17.90 52.35
SI 06:00:00 NR -18.00 52.00
SI 09:00:00 NR -18.11 51.60
SI 12:00:00 NR -18.22 51.19
SI 15:00:00 NR -18.34 50.78
SI 18:00:00 NR -18.46 50.37
SI 21:00:00 NR -18.58 49.98
SI 1851-03-27 00:00:00 NR -18.69 49.62
SI 03:00:00 NR -18.80 49.29
SI 06:00:00 NR -18.90 49.00
SI 09:00:00 NR -18.99 48.77
SI 12:00:00 NR -19.07 48.58
SI 15:00:00 NR -19.13 48.44
SI 18:00:00 NR -19.20 48.33
SI 21:00:00 NR -19.25 48.25
SI 1851-03-28 00:00:00 NR -19.30 48.19
SI 03:00:00 NR -19.35 48.14
SI 06:00:00 NR -19.40 48.10

Source Information

Agency Information
USA
TOKYO
CMA
HKO
NEWDELHI
REUNION WMO-Best-Tracks.txt:Line=35:xxxx851006
BOM
NADI
WELLINGTON
DS824
TD9636
TD9635
NEUMANN
MLC

All available IBTrACS Data

SEASON BASIN SUBBASIN ISO_TIME_________ NATURE LAT LON WMO AGENCY DIST2LAND LANDFALL IFLAG USA SSHS REUNION LAT REUNION LON REUNION TYPE REUNION TNUM STORM SPEED STORM DIR
Year degrees north degrees east km km 1 degrees north degrees east 1 kts degrees
1851 SI MM 1851-03-21 06:00:00 NR -15.10 62.50 reunion 756 733 _____O________ -1 -15.10 62.50 99 9.90 4 240
1851 SI MM 09:00:00 NR -15.19 62.33 733 718 _____P________ -1 -15.19 62.33 99 4 241
1851 SI MM 12:00:00 NR -15.28 62.16 718 695 _____P________ -1 -15.28 62.16 99 4 241
1851 SI MM 15:00:00 NR -15.38 61.98 695 673 _____P________ -1 -15.38 61.98 99 4 241
1851 SI MM 18:00:00 NR -15.48 61.80 673 651 _____P________ -1 -15.48 61.80 99 4 241
1851 SI MM 21:00:00 NR -15.57 61.61 651 628 _____P________ -1 -15.57 61.61 99 4 241
1851 SI MM 1851-03-22 00:00:00 NR -15.68 61.42 628 607 _____P________ -1 -15.68 61.42 99 4 241
1851 SI MM 03:00:00 NR -15.79 61.21 607 585 _____P________ -1 -15.79 61.21 99 5 241
1851 SI MM 06:00:00 NR -15.90 61.00 reunion 585 563 _____O________ -1 -15.90 61.00 99 9.90 5 241
1851 SI MM 09:00:00 NR -16.02 60.77 563 536 _____P________ -1 -16.02 60.77 99 5 241
1851 SI MM 12:00:00 NR -16.14 60.54 536 506 _____P________ -1 -16.14 60.54 99 5 242
1851 SI MM 15:00:00 NR -16.27 60.29 506 485 _____P________ -1 -16.27 60.29 99 5 243
1851 SI MM 18:00:00 NR -16.39 60.04 479 459 _____P________ -1 -16.39 60.04 99 5 244
1851 SI MM 21:00:00 NR -16.50 59.78 459 435 _____P________ -1 -16.50 59.78 99 5 245
1851 SI MM 1851-03-23 00:00:00 NR -16.61 59.52 435 416 _____P________ -1 -16.61 59.52 99 5 247
1851 SI MM 03:00:00 NR -16.71 59.26 416 393 _____P________ -1 -16.71 59.26 99 5 250
1851 SI MM 06:00:00 NR -16.80 59.00 reunion 393 376 _____O________ -1 -16.80 59.00 99 9.90 5 253
1851 SI MM 09:00:00 NR -16.87 58.76 376 367 _____P________ -1 -16.87 58.76 99 5 256
1851 SI MM 12:00:00 NR -16.92 58.52 367 352 _____P________ -1 -16.92 58.52 99 5 258
1851 SI MM 15:00:00 NR -16.96 58.27 352 348 _____P________ -1 -16.96 58.27 99 5 261
1851 SI MM 18:00:00 NR -16.99 58.03 348 346 _____P________ -1 -16.99 58.03 99 5 262
1851 SI MM 21:00:00 NR -17.02 57.78 346 346 _____P________ -1 -17.02 57.78 99 5 264
1851 SI MM 1851-03-24 00:00:00 NR -17.05 57.53 346 335 _____P________ -1 -17.05 57.53 99 5 264
1851 SI MM 03:00:00 NR -17.07 57.27 336 336 _____P________ -1 -17.07 57.27 99 5 264
1851 SI MM 06:00:00 NR -17.10 57.00 reunion 339 339 _____O________ -1 -17.10 57.00 99 9.90 5 264
1851 SI MM 09:00:00 NR -17.13 56.72 346 341 _____P________ -1 -17.13 56.72 99 5 263
1851 SI MM 12:00:00 NR -17.16 56.44 344 344 _____P________ -1 -17.16 56.44 99 6 264
1851 SI MM 15:00:00 NR -17.19 56.14 356 356 _____P________ -1 -17.19 56.14 99 6 263
1851 SI MM 18:00:00 NR -17.23 55.84 370 370 _____P________ -1 -17.23 55.84 99 6 263
1851 SI MM 21:00:00 NR -17.26 55.54 377 377 _____P________ -1 -17.26 55.54 99 6 263
1851 SI MM 1851-03-25 00:00:00 NR -17.30 55.23 395 395 _____P________ -1 -17.30 55.23 99 6 262
1851 SI MM 03:00:00 NR -17.35 54.92 416 404 _____P________ -1 -17.35 54.92 99 6 261
1851 SI MM 06:00:00 NR -17.40 54.60 reunion 409 405 _____O________ -1 -17.40 54.60 99 9.90 6 260
1851 SI MM 09:00:00 NR -17.45 54.29 405 405 _____P________ -1 -17.45 54.29 99 6 259
1851 SI MM 12:00:00 NR -17.52 53.98 414 411 _____P________ -1 -17.52 53.98 99 6 258
1851 SI MM 15:00:00 NR -17.58 53.66 413 384 _____P________ -1 -17.58 53.66 99 6 257
1851 SI MM 18:00:00 NR -17.65 53.34 380 353 _____P________ -1 -17.65 53.34 99 6 256
1851 SI MM 21:00:00 NR -17.73 53.02 353 327 _____P________ -1 -17.73 53.02 99 6 256
1851 SI MM 1851-03-26 00:00:00 NR -17.82 52.69 327 302 _____P________ -1 -17.82 52.69 99 7 255
1851 SI MM 03:00:00 NR -17.90 52.35 292 266 _____P________ -1 -17.90 52.35 99 7 254
1851 SI MM 06:00:00 NR -18.00 52.00 reunion 266 226 _____O________ -1 -18.00 52.00 99 9.90 7 254
1851 SI MM 09:00:00 NR -18.11 51.60 226 188 _____P________ -1 -18.11 51.60 99 8 254
1851 SI MM 12:00:00 NR -18.22 51.19 188 148 _____P________ -1 -18.22 51.19 99 8 253
1851 SI MM 15:00:00 NR -18.34 50.78 148 107 _____P________ -1 -18.34 50.78 99 8 253
1851 SI MM 18:00:00 NR -18.46 50.37 110 77 _____P________ -1 -18.46 50.37 99 8 253
1851 SI MM 21:00:00 NR -18.58 49.98 77 42 _____P________ -1 -18.58 49.98 99 8 252
1851 SI MM 1851-03-27 00:00:00 NR -18.69 49.62 42 15 _____P________ -1 -18.69 49.62 99 7 251
1851 SI MM 03:00:00 NR -18.80 49.29 15 0 _____P________ -1 -18.80 49.29 99 6 250
1851 SI MM 06:00:00 NR -18.90 49.00 reunion 0 0 _____O________ -1 -18.90 49.00 99 9.90 5 249
1851 SI MM 09:00:00 NR -18.99 48.77 0 0 _____P________ -1 -18.99 48.77 99 4 247
1851 SI MM 12:00:00 NR -19.07 48.58 0 0 _____P________ -1 -19.07 48.58 99 3 245
1851 SI MM 15:00:00 NR -19.13 48.44 0 0 _____P________ -1 -19.13 48.44 99 3 241
1851 SI MM 18:00:00 NR -19.20 48.33 0 0 _____P________ -1 -19.20 48.33 99 2 237
1851 SI MM 21:00:00 NR -19.25 48.25 0 0 _____P________ -1 -19.25 48.25 99 2 230
1851 SI MM 1851-03-28 00:00:00 NR -19.30 48.19 0 0 _____P________ -1 -19.30 48.19 99 1 225
1851 SI MM 03:00:00 NR -19.35 48.14 0 0 _____P________ -1 -19.35 48.14 99 1 219
1851 SI MM 06:00:00 NR -19.40 48.10 reunion 0 _____O________ -1 -19.40 48.10 99 9.90 1 212